Cary Plt, Maine
Current Conditions -  °F | °C
As of 12:53 PM on Sunday 21 Dec 2014 (Local Time) from KHUL Reporting Station
Overcast Overcast  
Wind Chill: 21°   Ceiling: 1300
Heat Index: 26°   Visibility: 10mi
Dew Point: 21°   Wind: 5mph
Humidity: 81%   Direction: 70°ENE
Pressure: 30.33"   Gusts: NA
Location:  45.8952°N, 67.8479°W
Report Text: KHUL 211753Z AUTO 07004KT 10SM BKN013 OVC026 M03/M06 A3033 RMK AO2 SLP279 T10331061 11033 21072 56011
Loading
Personal Weather Stations






























Interactive Weather Map New forecast layout! Learn more

10-Day Weather Forecast

Advertisements
Track Severe Weather on mobile